Bird Island, Minnesota
Current Conditions -  °F | °C
As of 7:54 PM on Wednesday 22 Oct 2014 (Local Time) from KOVL Reporting Station
Scattered Clouds Scattered Clouds  
Wind Chill: 61°   Ceiling: Unl
Heat Index: 61°   Visibility: 10mi
Dew Point: 45°   Wind: 12mph
Humidity: 55%   Direction: 150°SSE
Pressure: 29.96"   Gusts: 18mph
Location:  44.77°N, 94.9°W
Report Text: KOVL 230054Z AUTO 15010G16KT 10SM SCT065 16/07 A2996 RMK AO2
Loading
Personal Weather Stations






























Interactive Weather Map
Tropical Storm Tracking
New forecast layout! Learn more

10-Day Weather Forecast

Advertisements
Track Severe Weather on mobile